Terminal Aerodrome Forecast
Issued by NWS

Home | Current Version | Previous Version | Text Only | Print | Product List | Glossary Off
Versions: 1 2 3 4 5 6 7 8 9 10 11 12 13 14 15 16 17 18 19 20 21 22

000
FTUS43 KABR 301100
TAFMBG
TAF
KMBG 301134Z 3012/3112 06005KT P6SM SKC
     FM301500 12008KT P6SM SKC
     FM301900 14017G25KT P6SM SCT250
     FM310000 15015KT P6SM BKN080
     FM310600 24013KT P6SM SCT200=

USA.gov is the U.S. government's official web portal to all federal, state and local government web resources and services.